Latest Coastal Weather Observations for Cape Willoughby

IDS60701

Issued at 10:25 am CDT Friday 31 October 2014 (issued every 10 minutes, with the page automatically refreshed every 10 minutes)

About coastal observations | Map of coastal stations | Coastal observations for SA | Marine services | Other Formats
Station Details ID: 022803 Name: CAPE WILLOUGHBY Lat: -35.84 Lon: 138.13 Height: 55.0 m
Data from the previous 72 hours. | See also: Recent months at Cape Willoughby
Date/Time
CDT
Temp

°C
Wind Pressure Rain
since 9am
mm
Weather Cloud Vis
km
Sea
Height
m
Swell
Dir
 
Speed
knots
Gust
knots
hPa Trend Height
m
Period
s
Dir
31/10:00am 24.1 NNW 23 28 1002.9 - 0.0 - - - - - - -
31/09:30am 22.3 NNW 19 22 1003.3 - 0.0 - - - - - - -
31/09:00am 21.8 NNW 17 21 1003.8 - 0.0 - - - - - - -
31/08:30am 20.4 N 15 18 1004.2 - 0.0 - - - - - - -
31/08:00am 20.5 N 12 14 1004.5 - 0.0 - - - - - - -
31/07:30am 18.1 NNE 5 7 1004.8 - 0.0 - - - - - - -
31/07:00am 17.4 NNE 4 6 1004.9 - 0.0 - - - - - - -
31/06:30am 17.3 ENE 13 16 1004.9 - 0.0 - - - - - - -
31/06:00am 17.3 ENE 14 17 1005.0 - 0.0 - - - - - - -
31/05:30am 16.6 ENE 14 17 1005.2 - 0.0 - - - - - - -
31/05:00am 16.3 ENE 17 20 1005.4 - 0.0 - - - - - - -
31/04:30am 16.1 NE 15 18 1006.3 - 0.0 - - - - - - -
31/04:00am 15.9 NE 16 20 1007.0 - 0.0 - - - - - - -
31/03:30am 15.8 NE 12 17 1007.5 - 0.0 - - - - - - -
31/03:00am 15.6 NE 8 12 1008.1 - 0.0 - - - - - - -
31/02:30am 15.5 ENE 9 13 1008.5 - 0.0 - - - - - - -
31/02:00am 15.6 ENE 11 14 1009.2 - 0.0 - - - - - - -
31/01:30am 15.6 NE 11 13 1009.9 - 0.0 - - - - - - -
31/01:00am 15.5 ENE 10 12 1010.6 - 0.0 - - - - - - -
31/12:30am 15.5 ENE 10 12 1011.1 - 0.0 - - - - - - -
31/12:00am 15.4 ENE 9 11 1011.6 - 0.0 - - - - - - -
 
Date/Time
CDT
Temp

°C
Wind Pressure Rain
since 9am
mm
Weather Cloud Vis
km
Sea
Height
m
Swell
Dir
 
Speed
knots
Gust
knots
hPa Trend Height
m
Period
s
Dir
30/11:30pm 15.6 E 9 11 1011.9 - 0.0 - - - - - - -
30/11:00pm 15.3 ENE 8 9 1012.3 - 0.0 - - - - - - -
30/10:30pm 15.5 ENE 9 11 1012.5 - 0.0 - - - - - - -
30/10:00pm 15.3 ENE 7 9 1012.9 - 0.0 - - - - - - -
30/09:30pm 15.2 E 7 8 1013.0 - 0.0 - - - - - - -
30/09:00pm 15.2 ENE 9 10 1012.6 - 0.0 - - - - - - -
30/08:30pm 15.2 E 7 10 1012.4 - 0.0 - - - - - - -
30/08:00pm 15.2 ESE 6 8 1012.7 - 0.0 - - - - - - -
30/07:30pm 15.4 E 6 8 1012.6 - 0.0 - - - - - - -
30/07:00pm 15.8 ENE 8 10 1012.5 - 0.0 - - - - - - -
30/06:30pm 15.8 ENE 7 8 1012.5 - 0.0 - - - - - - -
30/06:00pm 16.0 E 7 9 1012.7 - 0.0 - - - - - - -
30/05:30pm 16.6 E 5 7 1013.1 - 0.0 - - - - - - -
30/05:00pm 16.5 ESE 6 7 1013.3 - 0.0 - - - - - - -
30/04:30pm 16.8 ESE 6 7 1013.5 - 0.0 - - - - - - -
30/04:00pm 17.3 ESE 5 7 1013.8 - 0.0 - - - - - - -
30/03:30pm 17.0 E 5 6 1014.0 - 0.0 - - - - - - -
30/03:00pm 16.9 E 4 6 1014.6 - 0.0 - - - - - - -
30/02:30pm 17.4 E 5 7 1014.8 - 0.0 - - - - - - -
30/02:00pm 17.5 E 5 6 1015.1 - 0.0 - - - - - - -
30/01:30pm 17.4 ESE 6 7 1015.3 - 0.0 - - - - - - -
30/01:00pm 16.9 E 5 7 1015.5 - 0.0 - - - - - - -
30/12:30pm 16.9 ENE 5 6 1015.9 - 0.0 - - - - - - -
30/12:00pm 16.8 E 5 6 1016.1 - 0.0 - - - - - - -
30/11:30am 17.7 ESE 5 7 1016.6 - 0.0 - - - - - - -
30/11:00am 16.4 E 4 5 1016.6 - 0.0 - - - - - - -
30/10:30am 16.4 ENE 4 5 1016.7 - 0.0 - - - - - - -
30/10:00am 16.5 ENE 4 5 1016.6 - 0.0 - - - - - - -
30/09:30am 16.1 ENE 4 5 1016.7 - 0.0 - - - - - - -
30/09:00am 15.4 NNE 5 6 1016.7 - 0.0 - - - - - - -
30/08:30am 14.3 NW 4 7 1016.8 - 0.0 - - - - - - -
30/08:00am 14.4 WNW 5 8 1016.8 - 0.0 - - - - - - -
30/07:30am 13.5 WNW 5 6 1016.5 - 0.0 - - - - - - -
30/07:00am 12.8 W 7 8 1016.5 - 0.0 - - - - - - -
30/06:30am 12.6 W 6 7 1016.4 - 0.0 - - - - - - -
30/06:00am 12.6 W 6 7 1016.1 - 0.0 - - - - - - -
30/05:30am 12.3 W 7 8 1015.9 - 0.0 - - - - - - -
30/05:00am 12.8 NW 2 2 1015.1 - 0.0 - - - - - - -
30/04:30am 12.6 NW 2 3 1015.2 - 0.0 - - - - - - -
30/04:00am 13.2 SW 5 7 1016.3 - 0.0 - - - - - - -
30/03:30am 12.7 WSW 6 7 1016.2 - 0.0 - - - - - - -
30/03:00am 12.6 SW 6 7 1016.1 - 0.0 - - - - - - -
30/02:30am 13.2 SSW 4 5 1015.8 - 0.0 - - - - - - -
30/02:00am 13.4 WSW 2 4 1016.0 - 0.0 - - - - - - -
30/01:30am 13.9 S 3 4 1016.5 - 0.0 - - - - - - -
30/01:00am 13.9 SSW 5 8 1016.8 - 0.0 - - - - - - -
30/12:30am 14.2 S 7 10 1017.2 - 0.0 - - - - - - -
30/12:00am 14.3 S 8 10 1017.2 - 0.0 - - - - - - -
 
Date/Time
CDT
Temp

°C
Wind Pressure Rain
since 9am
mm
Weather Cloud Vis
km
Sea
Height
m
Swell
Dir
 
Speed
knots
Gust
knots
hPa Trend Height
m
Period
s
Dir
29/11:30pm 14.4 SSW 10 13 1017.7 - 0.0 - - - - - - -
29/11:00pm 14.5 S 7 11 1017.9 - 0.0 - - - - - - -
29/10:30pm 14.4 SSW 8 11 1018.0 - 0.0 - - - - - - -
29/10:00pm 14.7 S 8 13 1017.8 - 0.0 - - - - - - -
29/09:30pm 14.8 S 8 11 1017.7 - 0.0 - - - - - - -
29/09:00pm 14.7 S 9 13 1017.5 - 0.0 - - - - - - -
29/08:30pm 14.6 S 8 11 1017.5 - 0.0 - - - - - - -
29/08:00pm 14.6 S 10 14 1017.6 - 0.0 - - - - - - -
29/07:30pm 14.7 S 9 13 1017.6 - 0.0 - - - - - - -
29/07:00pm 14.9 S 9 16 1017.7 - 0.0 - - - - - - -
29/06:30pm 15.0 S 11 15 1017.1 - 0.0 - - - - - - -
29/06:00pm 15.2 SSW 8 14 1017.2 - 0.0 - - - - - - -
29/05:30pm 15.2 S 9 12 1017.3 - 0.0 - - - - - - -
29/05:00pm 15.1 S 11 14 1017.2 - 0.0 - - - - - - -
29/04:30pm 15.3 S 11 14 1017.2 - 0.0 - - - - - - -
29/04:00pm 15.7 S 11 14 1017.2 - 0.0 - - - - - - -
29/03:30pm 16.0 S 14 17 1017.1 - 0.0 - - - - - - -
29/03:00pm 18.2 N 12 16 1017.0 - 0.0 - - - - - - -
29/02:30pm 18.3 N 12 14 1017.5 - 0.0 - - - - - - -
29/02:00pm 18.5 N 13 15 1017.8 - 0.0 - - - - - - -
29/01:30pm 17.9 N 14 17 1018.2 - 0.0 - - - - - - -
29/01:00pm 17.6 N 14 18 1018.4 - 0.0 - - - - - - -
29/12:30pm 17.6 N 15 18 1018.9 - 0.0 - - - - - - -
29/12:00pm 17.2 N 14 18 1019.0 - 0.0 - - - - - - -
29/11:30am 17.1 N 15 19 1019.1 - 0.0 - - - - - - -
29/11:00am 17.9 N 15 20 1019.1 - 0.0 - - - - - - -
29/10:30am 18.0 N 12 17 1019.0 - 0.0 - - - - - - -
29/10:00am 16.1 N 6 8 1019.4 - 0.0 - - - - - - -
29/09:30am 15.9 WNW 7 10 1019.6 - 0.0 - - - - - - -
29/09:00am 15.5 W 2 4 1019.6 - 0.0 - - - - - - -
29/08:30am 14.6 SSW 2 3 1019.7 - 0.0 - - - - - - -
29/08:00am 14.1 W 4 5 1019.8 - 0.0 - - - - - - -
29/07:30am 13.3 W 5 7 1019.7 - 0.0 - - - - - - -
29/07:00am 13.2 W 7 9 1019.6 - 0.0 - - - - - - -
29/06:30am 12.8 W 6 8 1019.6 - 0.0 - - - - - - -
29/06:00am 12.6 W 8 9 1019.3 - 0.0 - - - - - - -
29/05:30am 12.6 WNW 8 9 1019.3 - 0.0 - - - - - - -
29/05:00am 12.1 WNW 8 10 1019.2 - 0.0 - - - - - - -
29/04:30am 12.0 W 9 10 1019.0 - 0.0 - - - - - - -
29/04:00am 11.8 WNW 11 12 1019.1 - 0.0 - - - - - - -
29/03:30am 11.9 W 8 9 1019.1 - 0.0 - - - - - - -
29/03:00am 12.1 W 6 7 1019.2 - 0.0 - - - - - - -
29/02:30am 12.5 W 5 7 1019.2 - 0.0 - - - - - - -
29/02:00am 12.6 WSW 5 6 1019.2 - 0.0 - - - - - - -
29/01:30am 12.9 WSW 7 8 1019.5 - 0.0 - - - - - - -
29/01:00am 12.8 WSW 6 8 1019.8 - 0.0 - - - - - - -
29/12:30am 13.2 WSW 9 11 1019.8 - 0.0 - - - - - - -
29/12:00am 13.4 SW 11 13 1019.6 - 0.0 - - - - - - -
 
Date/Time
CDT
Temp

°C
Wind Pressure Rain
since 9am
mm
Weather Cloud Vis
km
Sea
Height
m
Swell
Dir
 
Speed
knots
Gust
knots
hPa Trend Height
m
Period
s
Dir
28/11:30pm 14.0 SW 12 15 1019.7 - 0.0 - - - - - - -
28/11:00pm 14.1 SW 12 15 1019.7 - 0.0 - - - - - - -
28/10:30pm 14.2 SW 12 15 1019.8 - 0.0 - - - - - - -
28/10:00pm 14.4 SW 12 14 1019.9 - 0.0 - - - - - - -
28/09:30pm 14.4 SSW 13 16 1019.9 - 0.0 - - - - - - -
28/09:00pm 14.6 SW 11 14 1019.6 - 0.0 - - - - - - -
28/08:30pm 14.7 SW 11 13 1019.5 - 0.0 - - - - - - -
28/08:00pm 14.8 SW 12 15 1019.4 - 0.0 - - - - - - -
28/07:30pm 15.0 SW 12 15 1019.3 - 0.0 - - - - - - -
28/07:00pm 15.1 SW 13 16 1019.1 - 0.0 - - - - - - -
28/06:30pm 15.3 SSW 14 17 1019.0 - 0.0 - - - - - - -
28/06:00pm 15.8 SW 14 18 1018.8 - 0.0 - - - - - - -
28/05:30pm 15.8 SSW 15 20 1018.7 - 0.0 - - - - - - -
28/05:00pm 16.5 SW 16 20 1018.6 - 0.0 - - - - - - -
28/04:30pm 16.5 SSW 16 20 1018.5 - 0.0 - - - - - - -
28/04:00pm 16.4 SSW 14 19 1018.6 - 0.0 - - - - - - -
28/03:30pm 16.4 SSW 13 19 1018.5 - 0.0 - - - - - - -
28/03:00pm 16.6 SSW 12 20 1018.7 - 0.0 - - - - - - -
28/02:30pm 16.5 SSW 14 20 1018.8 - 0.0 - - - - - - -
28/02:00pm 16.7 SSW 19 24 1018.9 - 0.0 - - - - - - -
28/01:30pm 16.4 SSW 18 25 1018.9 - 0.0 - - - - - - -
28/01:00pm 17.0 SW 17 24 1018.7 - 0.0 - - - - - - -
28/12:30pm 16.4 SW 20 26 1018.9 - 0.0 - - - - - - -
28/12:00pm 16.5 SW 19 24 1018.6 - 0.0 - - - - - - -
28/11:30am 17.6 SW 15 23 1018.4 - 0.0 - - - - - - -
28/11:00am 17.1 SW 17 22 1018.5 - 0.0 - - - - - - -
28/10:30am 18.1 WSW 18 26 1018.3 - 0.0 - - - - - - -

Other Formats:

Comma delimited format used in spreadsheet applications
http://www.bom.gov.au/fwo/IDS60701/IDS60701.94822.axf

JavaScript Object Notation format (JSON) in row-major order
http://www.bom.gov.au/fwo/IDS60701/IDS60701.94822.json